Atlantic, North Carolina
Current Conditions -  °F | °C
As of 6:14 AM on Tuesday 21 Oct 2014 (Local Time) from KNBT Reporting Station
Haze Haze  
Wind Chill: 18°   Ceiling: Unl
Heat Index: 18°   Visibility: 1.7mi
Dew Point: 17°   Wind: 3mph
Humidity: 90%   Direction: 230°SW
Pressure: 29.93"   Gusts: NA
Location:  34.89°N, 76.34°W
Report Text: KNBT 211014Z AUTO 23003KT 1 3/4SM BR CLR 18/17 A2993 RMK AO2 T01830167 PNO
Loading
Personal Weather Stations






























Interactive Weather Map
Tropical Storm Tracking
New forecast layout! Learn more

10-Day Weather Forecast

Advertisements
Track Severe Weather on mobile